createdAt,value
2023-01-19T02:21:13.567Z,624.00
2023-01-19T02:22:13.533Z,631.00
2023-01-19T02:23:13.517Z,628.00
2023-01-19T02:24:13.491Z,630.00
2023-01-19T02:25:13.458Z,630.00
2023-01-19T02:26:13.449Z,627.00
2023-01-19T02:27:13.409Z,620.00
2023-01-19T02:28:13.404Z,625.00
2023-01-19T02:29:13.366Z,629.00
2023-01-19T02:30:13.328Z,627.00
2023-01-19T02:31:13.315Z,625.00
2023-01-19T02:32:13.304Z,628.00
2023-01-19T02:33:13.270Z,624.00
2023-01-19T02:34:13.231Z,628.00
2023-01-19T02:35:13.235Z,625.00
2023-01-19T02:36:13.185Z,628.00
2023-01-19T02:37:13.167Z,626.00
2023-01-19T02:38:13.158Z,624.00
2023-01-19T02:39:13.126Z,626.00
2023-01-19T02:40:13.097Z,618.00
2023-01-19T02:41:13.071Z,624.00
2023-01-19T02:42:13.043Z,619.00
2023-01-19T02:43:13.037Z,619.00
2023-01-19T02:44:13.000Z,625.00
2023-01-19T02:45:12.984Z,621.00
2023-01-19T02:46:12.974Z,625.00
2023-01-19T02:47:12.912Z,623.00
2023-01-19T02:48:12.916Z,616.00
2023-01-19T02:49:12.918Z,617.00
2023-01-19T02:50:12.871Z,620.00
2023-01-19T02:51:12.835Z,622.00
2023-01-19T02:52:12.810Z,623.00
2023-01-19T02:53:12.795Z,622.00
2023-01-19T02:54:12.818Z,622.00
2023-01-19T02:55:12.793Z,620.00
2023-01-19T02:56:12.758Z,617.00
2023-01-19T02:57:12.726Z,622.00
2023-01-19T02:58:12.685Z,622.00
2023-01-19T02:59:12.705Z,615.00
2023-01-19T03:00:12.662Z,620.00
2023-01-19T03:01:12.921Z,614.00
2023-01-19T03:02:12.718Z,617.00
2023-01-19T03:03:12.608Z,616.00
2023-01-19T03:04:12.607Z,618.00
2023-01-19T03:05:12.586Z,620.00
2023-01-19T03:06:12.566Z,613.00
2023-01-19T03:07:12.584Z,618.00
2023-01-19T03:08:12.539Z,616.00
2023-01-19T03:09:12.537Z,614.00
2023-01-19T03:10:12.523Z,616.00
2023-01-19T03:11:12.467Z,611.00
2023-01-19T03:12:12.443Z,610.00
2023-01-19T03:13:12.403Z,616.00
2023-01-19T03:14:12.402Z,612.00
2023-01-19T03:15:12.372Z,615.00
2023-01-19T03:16:12.452Z,613.00
2023-01-19T03:17:12.324Z,612.00
2023-01-19T03:18:12.332Z,614.00
2023-01-19T03:19:12.302Z,615.00
2023-01-19T03:20:12.247Z,615.00
2023-01-19T03:21:12.217Z,613.00
2023-01-19T03:22:12.183Z,612.00
2023-01-19T03:23:12.189Z,613.00
2023-01-19T03:24:12.175Z,612.00
2023-01-19T03:25:12.145Z,613.00
2023-01-19T03:26:12.155Z,613.00
2023-01-19T03:27:12.156Z,614.00
2023-01-19T03:28:12.094Z,614.00
2023-01-19T03:29:12.118Z,612.00
2023-01-19T03:30:12.078Z,613.00
2023-01-19T03:31:12.109Z,606.00
2023-01-19T03:32:12.078Z,609.00
2023-01-19T03:33:12.034Z,611.00
2023-01-19T03:34:12.013Z,610.00
2023-01-19T03:35:11.978Z,609.00
2023-01-19T03:36:11.947Z,610.00
2023-01-19T03:37:11.927Z,606.00
2023-01-19T03:38:11.919Z,610.00
2023-01-19T03:39:11.952Z,609.00
2023-01-19T03:40:11.866Z,607.00
2023-01-19T03:41:11.850Z,607.00
2023-01-19T03:42:11.828Z,604.00
2023-01-19T03:43:11.805Z,609.00
2023-01-19T03:44:11.820Z,607.00
2023-01-19T03:45:11.783Z,603.00
2023-01-19T03:46:11.776Z,607.00
2023-01-19T03:47:11.751Z,605.00
2023-01-19T03:48:11.715Z,605.00
2023-01-19T03:49:11.708Z,608.00
2023-01-19T03:50:11.706Z,606.00
2023-01-19T03:51:11.659Z,604.00
2023-01-19T03:52:11.645Z,603.00
2023-01-19T03:53:11.642Z,606.00
2023-01-19T03:54:11.607Z,603.00
2023-01-19T03:55:11.630Z,604.00
2023-01-19T03:56:11.581Z,605.00
2023-01-19T03:57:11.554Z,601.00
2023-01-19T03:58:11.521Z,604.00
2023-01-19T03:59:11.505Z,603.00
2023-01-19T04:00:11.498Z,604.00
2023-01-19T04:01:11.639Z,605.00
2023-01-19T04:02:11.456Z,608.00
2023-01-19T04:03:11.485Z,599.00
2023-01-19T04:04:11.390Z,600.00
2023-01-19T04:05:11.414Z,601.00
2023-01-19T04:06:11.344Z,601.00
2023-01-19T04:07:11.343Z,600.00
2023-01-19T04:08:11.304Z,602.00
2023-01-19T04:09:11.305Z,600.00
2023-01-19T04:10:11.285Z,597.00
2023-01-19T04:11:11.229Z,597.00
2023-01-19T04:12:11.212Z,600.00
2023-01-19T04:13:11.199Z,602.00
2023-01-19T04:14:11.164Z,599.00
2023-01-19T04:15:11.160Z,603.00
2023-01-19T04:16:11.143Z,597.00
2023-01-19T04:17:11.105Z,600.00
2023-01-19T04:18:11.069Z,593.00
2023-01-19T04:19:11.039Z,595.00
2023-01-19T04:20:11.022Z,593.00
2023-01-19T04:21:11.010Z,598.00
2023-01-19T04:22:10.972Z,593.00
2023-01-19T04:23:10.956Z,594.00
2023-01-19T04:24:10.923Z,594.00
2023-01-19T04:25:10.909Z,597.00
2023-01-19T04:26:10.900Z,593.00
2023-01-19T04:27:10.868Z,600.00
2023-01-19T04:28:10.855Z,592.00
2023-01-19T04:29:10.837Z,596.00
2023-01-19T04:30:10.800Z,596.00
2023-01-19T04:31:10.847Z,592.00
2023-01-19T04:32:10.763Z,595.00
2023-01-19T04:33:10.755Z,593.00
2023-01-19T04:34:10.732Z,595.00
2023-01-19T04:35:10.732Z,597.00
2023-01-19T04:36:10.696Z,592.00
2023-01-19T04:37:10.652Z,589.00
2023-01-19T04:38:10.644Z,591.00
2023-01-19T04:39:10.628Z,594.00
2023-01-19T04:40:10.596Z,592.00
2023-01-19T04:41:10.603Z,594.00
2023-01-19T04:42:10.577Z,590.00
2023-01-19T04:43:10.542Z,592.00
2023-01-19T04:44:10.538Z,592.00
2023-01-19T04:45:10.532Z,589.00
2023-01-19T04:46:10.524Z,588.00
2023-01-19T04:47:10.480Z,591.00
2023-01-19T04:48:10.443Z,590.00
2023-01-19T04:49:10.443Z,588.00
2023-01-19T04:50:10.397Z,585.00
2023-01-19T04:51:10.418Z,588.00
2023-01-19T04:52:10.362Z,589.00
2023-01-19T04:53:10.369Z,592.00
2023-01-19T04:54:10.354Z,588.00
2023-01-19T04:55:10.309Z,582.00
2023-01-19T04:56:10.319Z,589.00
2023-01-19T04:57:10.275Z,590.00
2023-01-19T04:58:10.261Z,587.00
2023-01-19T04:59:10.239Z,589.00
2023-01-19T05:00:10.215Z,589.00
2023-01-19T05:01:10.278Z,590.00
2023-01-19T05:02:10.254Z,589.00
2023-01-19T05:03:10.193Z,587.00
2023-01-19T05:04:10.116Z,589.00
2023-01-19T05:05:10.145Z,586.00
2023-01-19T05:06:10.071Z,586.00
2023-01-19T05:07:10.119Z,592.00
2023-01-19T05:08:10.054Z,584.00
2023-01-19T05:09:10.056Z,585.00
2023-01-19T05:10:10.151Z,581.00
2023-01-19T05:11:10.008Z,579.00
2023-01-19T05:12:09.946Z,581.00
2023-01-19T05:13:09.899Z,586.00
2023-01-19T05:14:09.866Z,585.00
2023-01-19T05:15:09.870Z,585.00
2023-01-19T05:16:09.860Z,581.00
2023-01-19T05:17:09.815Z,583.00
2023-01-19T05:18:09.795Z,584.00
2023-01-19T05:19:09.747Z,583.00
2023-01-19T05:20:09.770Z,579.00
2023-01-19T05:21:09.724Z,579.00
2023-01-19T05:22:09.689Z,579.00
2023-01-19T05:23:09.666Z,580.00
2023-01-19T05:24:09.639Z,581.00
2023-01-19T05:25:09.621Z,578.00
2023-01-19T05:26:10.419Z,580.00
2023-01-19T05:27:09.556Z,581.00
2023-01-19T05:28:09.513Z,583.00
2023-01-19T05:29:09.509Z,584.00
2023-01-19T05:30:09.482Z,583.00
2023-01-19T05:31:09.537Z,583.00
2023-01-19T05:32:09.424Z,577.00
2023-01-19T05:33:09.423Z,579.00
2023-01-19T05:34:09.397Z,583.00
2023-01-19T05:35:09.379Z,581.00
2023-01-19T05:36:09.347Z,579.00
2023-01-19T05:37:09.341Z,578.00
2023-01-19T05:38:09.309Z,583.00
2023-01-19T05:39:09.303Z,579.00
2023-01-19T05:40:09.260Z,581.00
2023-01-19T05:41:09.254Z,574.00
2023-01-19T05:42:09.203Z,581.00
2023-01-19T05:43:09.187Z,579.00
2023-01-19T05:44:09.152Z,577.00
2023-01-19T05:45:09.148Z,577.00
2023-01-19T05:46:09.133Z,576.00
2023-01-19T05:47:09.083Z,576.00
2023-01-19T05:48:10.170Z,576.00
2023-01-19T05:49:09.036Z,577.00
2023-01-19T05:50:09.032Z,575.00
2023-01-19T05:51:09.006Z,575.00
2023-01-19T05:52:08.946Z,573.00
2023-01-19T05:53:08.923Z,576.00
2023-01-19T05:54:08.913Z,576.00
2023-01-19T06:29:08.082Z,575.00
2023-01-19T06:30:08.074Z,565.00
2023-01-19T06:31:08.093Z,564.00
2023-01-19T06:32:08.044Z,567.00
2023-01-19T06:33:08.001Z,567.00
2023-01-19T06:34:07.963Z,565.00
2023-01-19T06:35:07.951Z,485.00
2023-01-19T06:36:07.921Z,400.00
2023-01-19T06:37:07.919Z,466.00
2023-01-19T06:38:07.972Z,518.00
2023-01-19T06:39:07.868Z,528.00
2023-01-19T06:40:07.869Z,491.00
2023-01-19T06:41:07.884Z,494.00
2023-01-19T06:42:07.844Z,507.00
2023-01-19T06:43:07.843Z,514.00
2023-01-19T06:44:07.818Z,498.00
2023-01-19T06:45:07.785Z,512.00
2023-01-19T06:46:07.843Z,537.00
2023-01-19T06:47:15.276Z,629.00
2023-01-19T06:48:08.820Z,608.00
2023-01-19T06:49:07.804Z,631.00
2023-01-19T06:50:07.777Z,618.00
2023-01-19T06:51:07.738Z,618.00
2023-01-19T06:52:07.746Z,610.00
2023-01-19T06:53:07.760Z,619.00
2023-01-19T06:54:07.762Z,674.00
2023-01-19T06:55:07.738Z,682.00
2023-01-19T06:56:07.752Z,734.00
2023-01-19T06:57:07.746Z,796.00
2023-01-19T06:58:07.698Z,822.00
2023-01-19T06:59:07.695Z,848.00
2023-01-19T07:00:07.666Z,921.00
2023-01-19T07:01:07.806Z,951.00
2023-01-19T07:02:27.729Z,987.00
2023-01-19T07:03:11.659Z,988.00
2023-01-19T07:04:10.937Z,990.00
2023-01-19T07:05:11.420Z,990.00
2023-01-19T07:06:10.426Z,993.00
2023-01-19T07:07:12.583Z,993.00
2023-01-19T07:08:11.913Z,996.00
2023-01-19T07:09:10.693Z,1017.00
2023-01-19T07:10:15.848Z,1003.00
2023-01-19T07:11:24.592Z,996.00
2023-01-19T07:12:13.910Z,997.00
2023-01-19T07:13:11.452Z,996.00
2023-01-19T07:14:09.131Z,997.00
2023-01-19T07:15:16.608Z,1027.00
2023-01-19T07:16:27.362Z,998.00
2023-01-19T07:17:24.694Z,996.00
2023-01-19T07:18:24.135Z,999.00
2023-01-19T07:19:21.647Z,999.00
2023-01-19T07:20:12.847Z,1001.00
2023-01-19T07:21:12.185Z,1004.00
2023-01-19T07:22:10.953Z,1003.00
2023-01-19T07:23:09.124Z,1003.00
2023-01-19T07:24:10.642Z,1057.00
2023-01-19T07:25:11.473Z,1004.00
2023-01-19T07:26:09.995Z,1003.00
2023-01-19T07:27:15.854Z,1004.00
2023-01-19T07:28:13.204Z,1004.00
2023-01-19T07:29:13.433Z,1005.00
2023-01-19T07:30:09.109Z,1005.00
2023-01-19T07:31:10.472Z,1062.00
2023-01-19T07:32:10.322Z,1005.00
2023-01-19T07:33:12.278Z,1005.00
2023-01-19T07:34:12.343Z,1004.00
2023-01-19T07:35:08.794Z,1004.00
2023-01-19T07:36:10.586Z,1007.00
2023-01-19T07:37:08.318Z,1004.00
2023-01-19T07:38:08.793Z,1062.00
2023-01-19T07:39:08.517Z,1156.00
2023-01-19T07:40:11.240Z,1292.00
2023-01-19T07:41:09.022Z,1003.00
2023-01-19T07:42:07.958Z,1032.00
2023-01-19T07:43:07.887Z,1020.00
2023-01-19T07:44:08.019Z,1020.00
2023-01-19T07:45:07.772Z,1193.00
2023-01-19T07:46:08.039Z,1241.00
2023-01-19T07:47:07.654Z,1192.00
2023-01-19T07:48:07.655Z,1256.00
2023-01-19T07:49:07.570Z,1194.00
2023-01-19T07:50:07.612Z,1111.00
2023-01-19T07:51:07.557Z,993.00
2023-01-19T07:52:07.654Z,1036.00
2023-01-19T07:53:07.677Z,1033.00
2023-01-19T07:54:07.802Z,1026.00
2023-01-19T07:55:07.062Z,1016.00
2023-01-19T07:56:07.381Z,1066.00
2023-01-19T07:57:07.664Z,1090.00
2023-01-19T07:58:07.154Z,1030.00
2023-01-19T07:59:07.394Z,1027.00
2023-01-19T08:00:08.662Z,977.00
2023-01-19T08:01:08.300Z,1001.00
2023-01-19T08:02:07.012Z,997.00
2023-01-19T08:03:16.807Z,1007.00
2023-01-19T08:04:11.746Z,1009.00
2023-01-19T08:05:09.181Z,1010.00
2023-01-19T08:06:07.782Z,1009.00
2023-01-19T08:07:17.437Z,1018.00
2023-01-19T08:08:09.278Z,1012.00
2023-01-19T08:09:09.435Z,1012.00
2023-01-19T08:10:14.075Z,1011.00
2023-01-19T08:11:10.790Z,1011.00
2023-01-19T08:12:14.622Z,1009.00
2023-01-19T08:13:08.996Z,1011.00
2023-01-19T08:14:10.350Z,1012.00
2023-01-19T08:15:10.126Z,1011.00
2023-01-19T08:16:07.653Z,1010.00
2023-01-19T08:17:06.677Z,1015.00
2023-01-19T08:18:09.158Z,1005.00
2023-01-19T08:19:07.030Z,1007.00
2023-01-19T08:20:07.263Z,1009.00
2023-01-19T08:21:06.967Z,992.00
2023-01-19T08:22:07.151Z,986.00
2023-01-19T08:23:10.315Z,976.00
2023-01-19T08:24:07.519Z,1008.00
2023-01-19T08:25:06.754Z,985.00
2023-01-19T08:26:11.053Z,976.00
2023-01-19T08:27:07.997Z,1010.00
2023-01-19T08:28:11.627Z,964.00
2023-01-19T08:29:07.427Z,1010.00
2023-01-19T08:30:07.420Z,1008.00
2023-01-19T08:31:19.766Z,1023.00
2023-01-19T08:32:10.074Z,1009.00
2023-01-19T08:33:09.930Z,992.00
2023-01-19T08:34:08.042Z,1008.00
2023-01-19T08:35:06.641Z,1011.00
2023-01-19T08:36:07.131Z,1012.00
2023-01-19T08:37:06.914Z,1009.00
2023-01-19T08:38:06.540Z,1116.00
2023-01-19T08:39:06.459Z,981.00
2023-01-19T08:40:07.281Z,686.00
2023-01-19T08:41:06.427Z,691.00
2023-01-19T08:42:06.666Z,680.00
2023-01-19T08:43:06.400Z,694.00
2023-01-19T08:44:06.708Z,843.00
2023-01-19T08:45:06.457Z,982.00
2023-01-19T08:46:07.108Z,975.00
2023-01-19T08:47:06.663Z,1046.00
2023-01-19T08:48:06.267Z,1019.00
2023-01-19T08:49:06.903Z,1101.00
2023-01-19T08:50:06.250Z,1139.00
2023-01-19T08:51:06.329Z,1192.00
2023-01-19T08:52:06.236Z,1205.00
2023-01-19T08:53:06.362Z,1240.00
2023-01-19T08:54:06.987Z,1215.00
2023-01-19T08:55:06.555Z,1266.00
2023-01-19T08:56:07.427Z,1283.00
2023-01-19T08:57:05.972Z,1330.00
2023-01-19T08:58:06.347Z,1328.00
2023-01-19T08:59:11.311Z,1353.00
2023-01-19T09:00:07.340Z,1354.00
2023-01-19T09:01:05.810Z,1355.00
2023-01-19T09:02:05.777Z,1353.00
2023-01-19T09:03:06.228Z,1352.00
2023-01-19T09:04:05.928Z,1380.00
2023-01-19T09:05:06.170Z,1389.00
2023-01-19T09:06:06.120Z,1373.00
2023-01-19T09:08:05.701Z,1423.00
2023-01-19T09:09:05.425Z,1419.00
2023-01-19T09:10:05.431Z,1448.00
2023-01-19T09:11:05.418Z,1452.00
2023-01-19T09:12:05.342Z,1470.00
2023-01-19T09:13:05.306Z,1465.00
2023-01-19T09:14:05.297Z,1473.00
2023-01-19T09:15:05.275Z,1485.00
2023-01-19T09:16:05.301Z,1493.00
2023-01-19T09:17:05.181Z,1495.00
2023-01-19T09:18:26.183Z,1495.00
2023-01-19T09:19:05.137Z,1499.00
2023-01-19T09:20:05.104Z,1508.00
2023-01-19T09:21:05.090Z,1519.00
2023-01-19T09:22:05.034Z,1539.00
2023-01-19T09:23:05.057Z,1565.00
2023-01-19T09:24:05.041Z,1571.00
2023-01-19T09:25:04.965Z,1575.00
2023-01-19T09:26:04.949Z,1589.00
2023-01-19T09:27:04.967Z,1590.00
2023-01-19T09:28:04.862Z,1583.00
2023-01-19T09:29:04.809Z,1592.00
2023-01-19T09:30:04.799Z,1598.00
2023-01-19T09:31:04.894Z,1600.00
2023-01-19T09:32:04.702Z,1602.00
2023-01-19T09:33:04.694Z,1610.00
2023-01-19T09:34:04.660Z,1612.00
2023-01-19T09:35:04.623Z,1630.00
2023-01-19T09:36:04.620Z,1623.00
2023-01-19T09:37:04.548Z,1630.00
2023-01-19T09:38:04.522Z,1643.00
2023-01-19T09:39:04.487Z,1643.00
2023-01-19T09:40:04.542Z,1644.00
2023-01-19T09:41:04.529Z,1636.00
2023-01-19T09:42:04.402Z,1648.00
2023-01-19T09:43:04.358Z,1604.00
2023-01-19T09:44:04.449Z,1589.00
2023-01-19T09:45:04.351Z,1610.00
2023-01-19T09:46:04.302Z,1604.00
2023-01-19T09:47:04.294Z,1613.00
2023-01-19T09:48:04.194Z,1615.00
2023-01-19T09:49:04.197Z,1616.00
2023-01-19T09:50:04.184Z,1614.00
2023-01-19T09:51:04.097Z,1593.00
2023-01-19T09:52:04.107Z,1606.00
2023-01-19T09:53:04.031Z,1598.00
2023-01-19T09:54:04.016Z,1588.00
2023-01-19T09:55:03.982Z,1596.00
2023-01-19T09:56:04.050Z,1592.00
2023-01-19T09:57:03.902Z,1606.00
2023-01-19T09:58:04.081Z,1606.00
2023-01-19T09:59:03.878Z,1606.00
2023-01-19T10:00:03.850Z,1602.00
2023-01-19T10:01:03.936Z,1592.00
2023-01-19T10:02:03.753Z,1584.00
2023-01-19T10:03:04.096Z,1592.00
2023-01-19T10:04:03.694Z,1584.00
2023-01-19T10:05:03.686Z,1610.00
2023-01-19T10:06:03.663Z,1615.00
2023-01-19T10:07:03.615Z,1612.00
2023-01-19T10:08:03.836Z,1646.00
2023-01-19T10:09:03.568Z,1631.00
2023-01-19T10:10:03.525Z,1577.00
2023-01-19T10:11:03.509Z,1593.00
2023-01-19T10:12:03.466Z,1579.00
2023-01-19T10:13:03.655Z,1549.00
2023-01-19T10:14:03.396Z,1542.00
2023-01-19T10:15:03.351Z,1522.00
2023-01-19T10:16:03.376Z,1484.00
2023-01-19T10:17:03.308Z,1506.00
2023-01-19T10:18:03.676Z,1443.00
2023-01-19T10:19:03.233Z,1421.00
2023-01-19T10:20:03.213Z,1407.00
2023-01-19T10:21:05.375Z,1394.00
2023-01-19T10:22:03.120Z,1372.00
2023-01-19T10:23:03.667Z,1363.00
2023-01-19T10:24:05.017Z,1348.00
2023-01-19T10:25:03.251Z,1349.00
2023-01-19T10:26:03.213Z,1332.00
2023-01-19T10:27:03.149Z,1336.00
2023-01-19T10:28:03.124Z,1323.00
2023-01-19T10:29:03.111Z,1289.00
2023-01-19T10:30:03.089Z,1258.00
2023-01-19T10:31:03.162Z,1261.00
2023-01-19T10:32:03.065Z,1258.00
2023-01-19T10:33:03.298Z,1244.00
2023-01-19T10:34:02.973Z,1257.00
2023-01-19T10:35:02.905Z,1232.00
2023-01-19T10:36:02.886Z,1254.00
2023-01-19T10:37:02.852Z,1240.00
2023-01-19T10:38:02.932Z,1234.00
2023-01-19T10:39:02.789Z,1222.00
2023-01-19T10:40:02.742Z,1202.00
2023-01-19T10:41:02.793Z,1263.00
2023-01-19T10:42:02.702Z,1197.00
2023-01-19T10:43:03.107Z,1211.00
2023-01-19T10:44:02.656Z,1173.00
2023-01-19T10:45:03.684Z,1213.00
2023-01-19T10:46:02.655Z,1201.00
2023-01-19T10:47:02.561Z,1224.00
2023-01-19T10:48:02.588Z,1248.00
2023-01-19T10:49:02.536Z,1217.00
2023-01-19T10:50:02.453Z,1226.00
2023-01-19T10:51:02.466Z,1235.00
2023-01-19T10:52:02.410Z,1237.00
2023-01-19T10:53:02.780Z,1241.00
2023-01-19T10:54:02.422Z,1238.00
2023-01-19T10:55:02.367Z,1246.00
2023-01-19T10:56:02.317Z,1249.00
2023-01-19T10:57:02.257Z,1263.00
2023-01-19T10:58:02.232Z,1226.00
2023-01-19T10:59:02.202Z,1255.00
2023-01-19T11:00:02.142Z,1267.00
2023-01-19T11:01:02.206Z,1233.00
2023-01-19T11:02:02.327Z,1205.00
2023-01-19T11:03:02.599Z,1209.00
2023-01-19T11:04:02.073Z,1226.00
2023-01-19T11:05:02.110Z,1222.00
2023-01-19T11:06:01.975Z,1210.00
2023-01-19T11:07:01.955Z,1208.00
2023-01-19T11:08:01.917Z,1192.00
2023-01-19T11:09:01.891Z,1166.00
2023-01-19T11:10:01.865Z,1186.00
2023-01-19T11:11:01.844Z,1181.00
2023-01-19T11:12:01.893Z,1187.00
2023-01-19T11:13:02.374Z,1212.00
2023-01-19T11:14:01.760Z,1213.00
2023-01-19T11:15:01.707Z,1205.00
2023-01-19T11:16:01.740Z,1221.00
2023-01-19T11:17:01.670Z,1221.00
2023-01-19T11:18:01.654Z,1198.00
2023-01-19T11:19:01.599Z,1170.00
2023-01-19T11:20:01.598Z,1158.00
2023-01-19T11:21:01.600Z,1152.00
2023-01-19T11:22:01.580Z,1159.00
2023-01-19T11:23:01.897Z,1181.00
2023-01-19T11:24:01.458Z,1189.00
2023-01-19T11:25:01.445Z,1167.00
2023-01-19T11:26:01.405Z,1166.00
2023-01-19T11:27:01.367Z,1149.00
2023-01-19T11:28:01.340Z,1182.00
2023-01-19T11:29:01.300Z,1138.00
2023-01-19T11:30:01.290Z,1134.00
2023-01-19T11:31:01.317Z,1183.00
2023-01-19T11:32:01.241Z,1127.00
2023-01-19T11:33:01.657Z,1205.00
2023-01-19T11:34:01.156Z,1224.00
2023-01-19T11:35:01.134Z,1191.00
2023-01-19T11:36:01.092Z,1152.00
2023-01-19T11:37:01.096Z,1162.00
2023-01-19T11:38:01.061Z,1163.00
2023-01-19T11:39:01.007Z,1165.00
2023-01-19T11:40:01.022Z,1175.00
2023-01-19T11:41:00.961Z,1148.00
2023-01-19T11:42:00.971Z,1164.00
2023-01-19T11:43:01.135Z,1142.00
2023-01-19T11:44:00.858Z,1181.00
2023-01-19T11:45:02.646Z,1195.00
2023-01-19T11:46:00.851Z,1197.00
2023-01-19T11:47:00.779Z,1227.00
2023-01-19T11:48:01.091Z,1262.00
2023-01-19T11:49:00.710Z,1249.00
2023-01-19T11:50:00.678Z,1266.00
2023-01-19T11:51:00.658Z,1267.00
2023-01-19T11:52:00.622Z,1264.00
2023-01-19T11:53:00.587Z,1288.00
2023-01-19T11:54:00.565Z,1286.00
2023-01-19T11:55:00.578Z,1290.00
2023-01-19T11:56:00.504Z,1298.00
2023-01-19T11:57:00.514Z,1312.00
2023-01-19T11:58:00.817Z,1322.00
2023-01-19T11:59:00.412Z,1316.00
2023-01-19T12:00:00.375Z,1338.00
2023-01-19T12:01:00.406Z,1329.00
2023-01-19T12:02:00.384Z,1338.00
2023-01-19T12:03:00.315Z,1308.00
2023-01-19T12:04:00.251Z,1292.00
2023-01-19T12:05:00.203Z,1263.00
2023-01-19T12:06:00.188Z,1203.00
2023-01-19T12:07:00.348Z,1179.00
2023-01-19T12:08:00.521Z,1145.00
2023-01-19T12:09:00.101Z,1121.00
2023-01-19T12:10:00.081Z,1132.00
2023-01-19T12:11:00.109Z,1129.00
2023-01-19T12:12:00.036Z,1139.00
2023-01-19T12:13:00.009Z,1175.00
2023-01-19T12:13:59.963Z,1192.00
2023-01-19T12:14:59.905Z,1136.00
2023-01-19T12:15:59.910Z,1151.00
2023-01-19T12:16:59.864Z,1125.00
2023-01-19T12:18:00.437Z,1103.00
2023-01-19T12:18:59.779Z,1133.00
2023-01-19T12:19:59.779Z,1126.00
2023-01-19T12:21:00.818Z,1177.00
2023-01-19T12:21:59.813Z,1201.00
2023-01-19T12:22:59.885Z,1197.00
2023-01-19T12:23:59.801Z,1197.00
2023-01-19T12:24:59.685Z,1208.00
2023-01-19T12:25:59.715Z,1217.00
2023-01-19T12:26:59.639Z,1235.00
2023-01-19T12:27:59.612Z,1248.00
2023-01-19T12:28:59.597Z,1262.00
2023-01-19T12:29:59.526Z,1258.00
2023-01-19T12:30:59.598Z,1185.00
2023-01-19T12:31:59.569Z,1180.00
2023-01-19T12:32:59.458Z,1172.00
2023-01-19T12:33:59.415Z,1161.00
2023-01-19T12:34:59.365Z,1137.00
2023-01-19T12:35:59.351Z,1151.00
2023-01-19T12:36:59.317Z,1162.00
2023-01-19T12:37:59.288Z,1209.00
2023-01-19T12:38:59.245Z,1223.00
2023-01-19T12:39:59.216Z,1203.00
2023-01-19T12:40:59.172Z,1208.00
2023-01-19T12:41:59.151Z,1180.00
2023-01-19T12:42:59.135Z,1195.00
2023-01-19T12:43:59.096Z,1185.00
2023-01-19T12:44:59.057Z,1196.00
2023-01-19T12:45:59.060Z,1187.00
2023-01-19T12:46:58.989Z,1191.00
2023-01-19T12:47:58.976Z,1182.00
2023-01-19T12:48:58.930Z,1200.00
2023-01-19T12:49:58.902Z,1201.00
2023-01-19T12:50:58.866Z,1205.00
2023-01-19T12:51:58.835Z,1210.00
2023-01-19T12:52:58.809Z,1180.00
2023-01-19T12:53:58.777Z,1186.00
2023-01-19T12:54:58.766Z,1221.00
2023-01-19T12:55:58.711Z,1208.00
2023-01-19T12:56:58.672Z,1197.00
2023-01-19T12:57:58.643Z,1209.00
2023-01-19T12:58:58.604Z,1216.00
2023-01-19T12:59:58.607Z,1096.00
2023-01-19T13:00:58.644Z,1103.00
2023-01-19T13:01:58.544Z,1121.00
2023-01-19T13:02:58.547Z,1090.00
2023-01-19T13:03:58.440Z,1112.00
2023-01-19T13:04:58.408Z,1122.00
2023-01-19T13:05:58.386Z,1135.00
2023-01-19T13:06:58.344Z,1142.00
2023-01-19T13:07:58.336Z,1099.00
2023-01-19T13:08:58.300Z,1093.00
2023-01-19T13:09:58.260Z,1122.00
2023-01-19T13:10:58.387Z,1102.00
2023-01-19T13:12:00.917Z,1109.00
2023-01-19T13:12:58.176Z,1101.00
2023-01-19T13:13:58.135Z,1105.00
2023-01-19T13:14:58.287Z,1071.00
2023-01-19T13:15:58.052Z,1075.00
2023-01-19T13:16:58.013Z,1087.00
2023-01-19T13:17:58.009Z,1109.00
2023-01-19T13:18:57.967Z,1091.00
2023-01-19T13:19:57.895Z,1065.00
2023-01-19T13:20:57.868Z,1050.00
2023-01-19T13:21:57.849Z,1070.00
2023-01-19T13:22:57.807Z,1059.00
2023-01-19T13:23:57.802Z,1029.00
2023-01-19T13:24:58.361Z,1047.00
2023-01-19T13:25:57.708Z,1055.00
2023-01-19T13:26:57.678Z,1050.00
2023-01-19T13:27:57.664Z,1061.00
2023-01-19T13:28:57.639Z,1127.00
2023-01-19T13:29:57.630Z,1142.00
2023-01-19T13:30:57.673Z,1128.00
2023-01-19T13:31:57.546Z,1127.00
2023-01-19T13:32:57.503Z,1119.00
2023-01-19T13:33:57.491Z,1127.00
2023-01-19T13:34:57.529Z,1141.00
2023-01-19T13:35:57.471Z,1154.00
2023-01-19T13:36:57.388Z,1157.00
2023-01-19T13:37:57.365Z,1154.00
2023-01-19T13:38:57.337Z,1167.00
2023-01-19T13:39:57.313Z,1173.00
2023-01-19T13:40:57.271Z,1174.00
2023-01-19T13:41:57.251Z,1190.00
2023-01-19T13:42:57.223Z,1191.00
2023-01-19T13:43:57.203Z,1186.00
2023-01-19T13:44:57.155Z,1190.00
2023-01-19T13:45:57.115Z,1197.00
2023-01-19T13:46:57.104Z,1205.00
2023-01-19T13:47:57.070Z,1209.00
2023-01-19T13:48:57.067Z,1208.00
2023-01-19T13:49:57.030Z,1218.00
2023-01-19T13:50:56.998Z,1223.00
2023-01-19T13:51:56.963Z,1224.00
2023-01-19T13:52:56.931Z,1233.00
2023-01-19T13:53:56.919Z,1239.00
2023-01-19T13:54:56.909Z,1202.00
2023-01-19T13:55:56.878Z,1191.00
2023-01-19T13:56:56.857Z,1196.00
2023-01-19T13:57:56.815Z,1188.00
2023-01-19T13:58:56.796Z,1184.00
2023-01-19T13:59:56.778Z,1182.00
2023-01-19T14:00:56.788Z,1165.00
2023-01-19T14:01:56.827Z,1153.00
2023-01-19T14:02:56.722Z,1170.00
2023-01-19T14:03:56.675Z,1165.00
2023-01-19T14:04:56.662Z,1179.00
2023-01-19T14:05:56.680Z,1163.00
2023-01-19T14:06:56.591Z,1164.00
2023-01-19T14:07:56.659Z,1169.00
2023-01-19T14:08:56.549Z,1149.00
2023-01-19T14:09:56.512Z,1156.00
2023-01-19T14:10:56.547Z,1088.00
2023-01-19T14:11:56.470Z,1143.00
2023-01-19T14:12:59.539Z,1118.00
2023-01-19T14:13:56.414Z,1120.00
2023-01-19T14:14:56.372Z,1125.00
2023-01-19T14:15:56.428Z,1123.00
2023-01-19T14:16:56.347Z,1120.00
2023-01-19T14:17:56.288Z,1157.00
2023-01-19T14:18:56.275Z,1182.00
2023-01-19T14:19:56.288Z,1054.00
2023-01-19T14:20:56.258Z,1065.00
2023-01-19T14:21:56.205Z,1044.00
2023-01-19T14:22:56.212Z,1061.00
2023-01-19T14:23:56.180Z,1077.00
2023-01-19T14:24:56.164Z,1092.00
2023-01-19T14:25:56.121Z,1087.00
2023-01-19T14:26:56.150Z,1079.00
2023-01-19T14:27:56.102Z,1076.00
2023-01-19T14:28:56.089Z,1075.00
2023-01-19T14:29:56.044Z,1086.00
2023-01-19T14:30:56.077Z,1083.00
2023-01-19T14:31:56.020Z,1077.00
2023-01-19T14:32:55.975Z,1093.00
2023-01-19T14:33:55.972Z,1080.00
2023-01-19T14:34:55.965Z,1103.00
2023-01-19T14:35:55.945Z,1093.00
2023-01-19T14:36:55.902Z,1103.00
2023-01-19T14:37:55.900Z,1112.00
2023-01-19T14:38:55.872Z,1095.00
2023-01-19T14:39:55.871Z,1093.00
2023-01-19T14:40:55.828Z,1113.00
2023-01-19T14:41:55.865Z,1102.00
2023-01-19T14:42:55.782Z,1116.00
2023-01-19T14:43:55.775Z,1096.00
2023-01-19T14:44:55.782Z,1115.00
2023-01-19T14:45:55.715Z,1110.00
2023-01-19T14:46:55.691Z,1104.00
2023-01-19T14:47:55.671Z,1090.00
2023-01-19T14:48:55.659Z,1119.00
2023-01-19T14:49:55.626Z,1132.00
2023-01-19T14:51:03.280Z,1134.00
2023-01-19T14:51:56.570Z,1134.00
2023-01-19T14:52:55.598Z,1100.00
2023-01-19T14:53:57.405Z,1115.00
2023-01-19T14:54:55.527Z,1108.00
2023-01-19T14:55:55.509Z,1115.00
2023-01-19T14:56:55.495Z,1106.00
2023-01-19T14:57:55.476Z,1112.00
2023-01-19T14:58:55.456Z,1103.00
2023-01-19T14:59:55.455Z,1122.00
2023-01-19T15:00:55.533Z,1108.00
2023-01-19T15:01:55.481Z,1120.00
2023-01-19T15:02:55.404Z,1125.00
2023-01-19T15:03:55.362Z,1132.00
2023-01-19T15:04:55.474Z,1117.00
2023-01-19T15:05:55.319Z,1126.00
2023-01-19T15:06:55.298Z,1120.00
2023-01-19T15:07:55.296Z,1129.00
2023-01-19T15:08:55.278Z,1130.00
2023-01-19T15:09:55.268Z,1134.00